Time;durP1;ratioP1;P1;durP2;ratioP2;P2;SDS_P1;SDS_P2;PMS_P1;PMS_P2;Temp;Humidity;BMP_temperature;BMP_pressure;BME280_temperature;BME280_humidity;BME280_pressure;Samples;Min_cycle;Max_cycle;Signal;HPM_P1;HPM_P2
2022/12/13 00:01:12;;;;;;;47.35;18.38;;;-4.80;99.90;;;;;;4991745;28;20027;-74
2022/12/13 00:03:37;;;;;;;45.33;18.63;;;-4.80;99.90;;;;;;4979481;28;20097;-74
2022/12/13 00:06:08;;;;;;;49.97;19.70;;;-4.80;99.90;;;;;;4991072;28;20042;-73
2022/12/13 00:08:34;;;;;;;48.80;19.52;;;-4.80;99.90;;;;;;4986238;28;22141;-74
2022/12/13 00:11:01;;;;;;;40.22;17.80;;;-4.80;99.90;;;;;;5000893;28;20502;-73
2022/12/13 00:13:28;;;;;;;53.58;18.88;;;-4.80;99.90;;;;;;4997178;28;20066;-74
2022/12/13 00:15:58;;;;;;;42.90;18.23;;;-4.80;99.90;;;;;;4986981;28;20536;-73
2022/12/13 00:18:24;;;;;;;43.85;17.00;;;-4.80;99.90;;;;;;4992031;28;20870;-74
2022/12/13 00:20:49;;;;;;;50.45;18.27;;;-4.80;99.90;;;;;;4992638;28;20058;-74
2022/12/13 00:23:15;;;;;;;53.88;18.45;;;-4.80;99.90;;;;;;5003230;28;20754;-73
2022/12/13 00:25:40;;;;;;;46.30;17.65;;;-4.70;99.90;;;;;;4986689;28;20061;-73
2022/12/13 00:28:07;;;;;;;47.40;18.65;;;-4.70;99.90;;;;;;4988553;28;20034;-73
2022/12/13 00:30:33;;;;;;;45.05;18.83;;;-4.70;99.90;;;;;;4994242;28;20051;-74
2022/12/13 00:32:58;;;;;;;42.80;18.17;;;-4.70;99.90;;;;;;4998945;28;20119;-75
2022/12/13 00:35:24;;;;;;;45.75;17.13;;;-4.70;99.90;;;;;;4996174;28;20026;-74
2022/12/13 00:37:49;;;;;;;43.47;18.10;;;-4.70;99.90;;;;;;4987853;28;20430;-73
2022/12/13 00:40:15;;;;;;;51.10;19.60;;;-4.70;99.90;;;;;;4990381;28;20034;-73
2022/12/13 00:42:40;;;;;;;47.55;18.83;;;-4.70;99.90;;;;;;4990645;28;20034;-73
2022/12/13 00:45:06;;;;;;;50.25;19.27;;;-4.70;99.90;;;;;;4988997;28;20401;-73
2022/12/13 00:47:32;;;;;;;51.30;20.25;;;-4.70;99.90;;;;;;4990260;28;20086;-74
2022/12/13 00:49:58;;;;;;;54.30;19.10;;;-4.60;99.90;;;;;;4986532;28;20427;-73
2022/12/13 00:52:23;;;;;;;42.50;17.60;;;-4.70;99.90;;;;;;4993707;28;20425;-73
2022/12/13 00:54:49;;;;;;;37.25;17.38;;;-4.70;99.90;;;;;;4990097;28;20508;-73
2022/12/13 00:57:14;;;;;;;44.80;18.10;;;-4.80;99.90;;;;;;4989500;28;20502;-73
2022/12/13 00:59:40;;;;;;;43.72;17.27;;;-4.90;99.90;;;;;;4992637;28;20022;-73
2022/12/13 01:02:05;;;;;;;43.40;17.80;;;-5.00;99.90;;;;;;4994269;28;20030;-73
2022/12/13 01:04:31;;;;;;;44.30;18.25;;;-5.00;99.90;;;;;;4977862;28;20466;-74
2022/12/13 01:06:56;;;;;;;42.78;16.92;;;-5.10;99.90;;;;;;4990428;28;20446;-74
2022/12/13 01:09:32;;;;;;;46.00;17.20;;;-5.20;99.90;;;;;;4998161;28;20029;-74
2022/12/13 01:12:00;;;;;;;45.92;17.65;;;-5.30;99.90;;;;;;4993627;28;20045;-73
2022/12/13 01:14:26;;;;;;;45.13;17.52;;;-5.30;99.90;;;;;;4995961;28;20393;-74
2022/12/13 01:16:55;;;;;;;43.28;18.20;;;-5.40;99.90;;;;;;4989335;28;20387;-73
2022/12/13 01:19:26;;;;;;;50.15;19.85;;;-5.30;99.90;;;;;;4989422;28;20080;-73
2022/12/13 01:21:56;;;;;;;44.60;18.48;;;-5.30;99.90;;;;;;4989942;28;20057;-74
2022/12/13 01:24:23;;;;;;;44.83;17.85;;;-5.40;99.90;;;;;;4992328;28;20054;-73
2022/12/13 01:26:49;;;;;;;42.17;18.45;;;-5.40;99.90;;;;;;4992682;28;20038;-73
2022/12/13 01:29:16;;;;;;;49.42;17.10;;;-5.40;99.90;;;;;;5000678;28;20022;-73
2022/12/13 01:31:41;;;;;;;47.03;18.08;;;-5.40;99.90;;;;;;4992363;28;20561;-73
2022/12/13 01:34:11;;;;;;;42.33;16.98;;;-5.40;99.90;;;;;;4988881;28;20125;-73
2022/12/13 01:36:38;;;;;;;45.75;17.40;;;-5.50;99.90;;;;;;4975488;28;20594;-73
2022/12/13 01:39:04;;;;;;;46.53;17.70;;;-5.50;99.90;;;;;;4987536;28;20018;-73
2022/12/13 01:41:32;;;;;;;44.80;16.73;;;-5.40;99.90;;;;;;4986716;28;20041;-74
2022/12/13 01:44:01;;;;;;;53.42;18.20;;;-5.40;99.90;;;;;;5002131;28;20029;-74
2022/12/13 01:46:29;;;;;;;48.38;17.83;;;-5.30;99.90;;;;;;4989697;28;20078;-74
2022/12/13 01:49:04;;;;;;;49.38;18.48;;;-5.20;99.90;;;;;;4981951;28;20026;-74
2022/12/13 01:51:45;;;;;;;49.28;17.70;;;-5.20;99.90;;;;;;4990968;28;20033;-74
2022/12/13 01:54:16;;;;;;;46.55;18.33;;;-5.10;99.90;;;;;;4989739;28;20053;-74
2022/12/13 01:56:49;;;;;;;53.25;18.20;;;-5.10;99.90;;;;;;4995572;28;20034;-73
2022/12/13 01:59:17;;;;;;;56.67;19.60;;;-5.00;99.90;;;;;;4996029;28;20241;-74
2022/12/13 02:01:44;;;;;;;53.72;20.58;;;-5.00;99.90;;;;;;4983781;28;20373;-73
2022/12/13 02:04:10;;;;;;;50.08;18.60;;;-4.90;99.90;;;;;;4986682;28;20034;-73
2022/12/13 02:06:40;;;;;;;51.90;19.23;;;-4.90;99.90;;;;;;4990697;28;20108;-74
2022/12/13 02:09:07;;;;;;;47.38;18.90;;;-4.90;99.90;;;;;;4982654;28;20110;-74
2022/12/13 02:11:34;;;;;;;56.17;18.15;;;-4.90;99.90;;;;;;5000214;28;20073;-74
2022/12/13 02:14:00;;;;;;;50.22;19.08;;;-4.90;99.90;;;;;;4993514;28;20022;-74
2022/12/13 02:17:02;;;;;;;53.42;20.48;;;-4.90;99.90;;;;;;4994476;28;20030;-73
2022/12/13 02:19:34;;;;;;;51.58;20.00;;;-4.90;99.90;;;;;;4988308;28;20562;-73
2022/12/13 02:22:14;;;;;;;42.85;17.63;;;-5.00;99.90;;;;;;4991605;28;20481;-74
2022/12/13 02:24:52;;;;;;;44.15;17.98;;;-5.00;99.90;;;;;;4996238;28;20060;-73
2022/12/13 02:27:49;;;;;;;43.53;17.98;;;-5.10;99.90;;;;;;4983654;28;20038;-75
2022/12/13 02:30:57;;;;;;;46.13;17.08;;;-5.20;99.90;;;;;;4991960;28;20505;-73
2022/12/13 02:33:49;;;;;;;42.83;16.88;;;-5.30;99.90;;;;;;4989853;28;20069;-73
2022/12/13 02:36:45;;;;;;;50.58;18.48;;;-5.40;99.90;;;;;;4983246;28;20027;-74
2022/12/13 02:39:20;;;;;;;48.97;16.90;;;-5.40;99.90;;;;;;5003005;28;20026;-74
2022/12/13 02:41:51;;;;;;;50.15;17.98;;;-5.50;99.90;;;;;;4992304;28;20036;-74
2022/12/13 02:44:30;;;;;;;40.80;16.60;;;-5.60;99.90;;;;;;4995601;28;20017;-74
2022/12/13 02:47:11;;;;;;;50.63;18.35;;;-5.60;99.90;;;;;;4997406;28;20050;-74
2022/12/13 02:49:40;;;;;;;47.55;18.50;;;-5.60;99.90;;;;;;4996845;28;20038;-73
2022/12/13 02:52:09;;;;;;;50.95;19.02;;;-5.50;99.90;;;;;;4996173;28;20485;-73
2022/12/13 02:54:36;;;;;;;46.60;17.90;;;-5.50;99.90;;;;;;4995037;28;20457;-73
2022/12/13 02:57:01;;;;;;;53.20;18.88;;;-5.50;99.90;;;;;;4996398;28;20039;-73
2022/12/13 02:59:33;;;;;;;50.85;19.27;;;-5.40;99.90;;;;;;4991954;28;20710;-74
2022/12/13 03:02:27;;;;;;;52.25;19.90;;;-5.40;99.90;;;;;;4989765;28;20077;-74
2022/12/13 03:08:21;;;;;;;38.00;14.00;;;-5.40;99.90;;;;;;4993982;28;20049;-74
2022/12/13 03:11:08;;;;;;;49.25;18.02;;;-5.40;99.90;;;;;;4978392;28;20590;-73
2022/12/13 03:13:51;;;;;;;52.13;18.88;;;-5.40;99.90;;;;;;4997078;28;20100;-74
2022/12/13 03:16:35;;;;;;;52.28;18.75;;;-5.40;99.90;;;;;;4992554;28;20030;-73
2022/12/13 03:19:07;;;;;;;54.50;18.60;;;-5.40;99.90;;;;;;5009406;28;20026;-73
2022/12/13 03:21:41;;;;;;;31.05;13.20;;;-5.50;99.90;;;;;;4991583;28;20070;-74
2022/12/13 03:24:07;;;;;;;39.38;15.65;;;-5.50;99.90;;;;;;4987865;28;20030;-73
2022/12/13 03:26:33;;;;;;;47.42;16.83;;;-5.60;99.90;;;;;;4995108;28;20367;-73
2022/12/13 03:28:59;;;;;;;46.10;17.60;;;-5.70;99.90;;;;;;4988538;28;20026;-73
2022/12/13 03:31:25;;;;;;;49.70;18.85;;;-5.60;99.90;;;;;;4994154;28;20037;-74
2022/12/13 03:33:50;;;;;;;44.88;19.08;;;-5.70;99.90;;;;;;5001276;28;20056;-73
2022/12/13 03:36:17;;;;;;;51.42;18.17;;;-5.70;99.90;;;;;;4992873;28;20034;-74
2022/12/13 03:38:44;;;;;;;48.88;17.30;;;-5.70;99.90;;;;;;4998591;28;20112;-73
2022/12/13 03:41:12;;;;;;;42.53;17.10;;;-5.80;99.90;;;;;;4999172;28;20033;-73
2022/12/13 03:43:39;;;;;;;44.10;16.85;;;-5.70;99.90;;;;;;4989275;28;20100;-73
2022/12/13 03:46:05;;;;;;;39.53;16.83;;;-5.70;99.90;;;;;;4985993;28;20034;-72
2022/12/13 03:48:31;;;;;;;51.05;17.65;;;-5.60;99.90;;;;;;4989193;28;20343;-73
2022/12/13 03:50:57;;;;;;;56.95;19.00;;;-5.50;99.90;;;;;;4995409;28;20255;-74
2022/12/13 03:53:23;;;;;;;45.10;18.17;;;-5.50;99.90;;;;;;4989012;28;20026;-73
2022/12/13 03:55:49;;;;;;;49.63;17.88;;;-5.40;99.90;;;;;;4988592;28;20098;-74
2022/12/13 03:58:15;;;;;;;50.95;17.73;;;-5.40;99.90;;;;;;4994018;28;20249;-73
2022/12/13 04:00:40;;;;;;;44.90;18.30;;;-5.40;99.90;;;;;;4994762;28;20033;-73
2022/12/13 04:03:06;;;;;;;55.90;19.60;;;-5.40;99.90;;;;;;4993530;28;20550;-73
2022/12/13 04:05:31;;;;;;;48.17;20.25;;;-5.30;99.90;;;;;;4992687;28;20022;-73
2022/12/13 04:07:57;;;;;;;49.65;18.88;;;-5.30;99.90;;;;;;4992824;28;20037;-73
2022/12/13 04:10:23;;;;;;;46.75;18.48;;;-5.30;99.90;;;;;;5002990;28;20025;-73
2022/12/13 04:15:32;;;;;;;41.53;16.73;;;-5.30;99.90;;;;;;4992520;28;20556;-73
2022/12/13 04:17:58;;;;;;;48.08;17.13;;;-5.30;99.90;;;;;;4991595;28;20077;-73
2022/12/13 04:20:23;;;;;;;45.92;17.55;;;-5.30;99.90;;;;;;4994601;28;21019;-73
2022/12/13 04:22:49;;;;;;;39.28;16.92;;;-5.40;99.90;;;;;;4985079;28;20045;-73
2022/12/13 04:25:15;;;;;;;50.53;19.38;;;-5.40;99.90;;;;;;4991000;28;20038;-73
2022/12/13 04:27:40;;;;;;;46.42;17.35;;;-5.50;99.90;;;;;;4984621;28;20042;-73
2022/12/13 04:30:07;;;;;;;49.45;17.15;;;-5.40;99.90;;;;;;4993029;28;20056;-73
2022/12/13 04:32:33;;;;;;;45.65;16.50;;;-5.40;99.90;;;;;;4985411;28;20101;-75
2022/12/13 04:34:59;;;;;;;46.45;17.75;;;-5.40;99.90;;;;;;4994355;28;20542;-73
2022/12/13 04:37:24;;;;;;;50.40;18.98;;;-5.40;99.90;;;;;;4999967;28;20097;-73
2022/12/13 04:39:50;;;;;;;54.38;19.48;;;-5.40;99.90;;;;;;4988976;28;20053;-73
2022/12/13 04:42:15;;;;;;;46.90;17.30;;;-5.40;99.90;;;;;;4989936;28;20513;-74
2022/12/13 04:44:41;;;;;;;50.20;18.05;;;-5.40;99.90;;;;;;4996656;28;20034;-73
2022/12/13 04:47:07;;;;;;;51.28;19.17;;;-5.40;99.90;;;;;;4995567;28;20037;-74
2022/12/13 04:49:33;;;;;;;50.40;18.30;;;-5.40;99.90;;;;;;4989550;28;20026;-72
2022/12/13 04:51:59;;;;;;;50.88;19.42;;;-5.40;99.90;;;;;;4987578;28;20387;-74
2022/12/13 04:54:24;;;;;;;40.03;16.70;;;-5.40;99.90;;;;;;4995906;28;20085;-73
2022/12/13 04:56:50;;;;;;;59.30;20.85;;;-5.40;99.90;;;;;;4989917;28;20054;-73
2022/12/13 04:59:15;;;;;;;54.25;18.83;;;-5.40;99.90;;;;;;4987649;28;20076;-73
2022/12/13 05:01:41;;;;;;;52.90;18.73;;;-5.40;99.90;;;;;;4978074;28;20030;-74
2022/12/13 05:04:07;;;;;;;43.15;18.63;;;-5.40;99.90;;;;;;4988087;28;20025;-73
2022/12/13 05:06:32;;;;;;;46.78;17.98;;;-5.40;99.90;;;;;;4986642;28;20035;-73
2022/12/13 05:08:58;;;;;;;58.40;19.95;;;-5.40;99.90;;;;;;4997995;28;20042;-73
2022/12/13 05:11:23;;;;;;;42.72;17.45;;;-5.40;99.90;;;;;;4983993;28;20026;-73
2022/12/13 05:13:49;;;;;;;45.33;18.30;;;-5.40;99.90;;;;;;4979803;28;20026;-74
2022/12/13 05:16:15;;;;;;;49.75;19.20;;;-5.40;99.90;;;;;;4988872;28;20118;-74
2022/12/13 05:18:41;;;;;;;50.63;18.23;;;-5.40;99.90;;;;;;4983660;28;20027;-73
2022/12/13 05:21:09;;;;;;;43.70;18.08;;;-5.50;99.90;;;;;;5000291;28;20042;-73
2022/12/13 05:23:35;;;;;;;46.90;18.92;;;-5.40;99.90;;;;;;4990193;28;20360;-73
2022/12/13 05:26:00;;;;;;;46.50;19.35;;;-5.50;99.90;;;;;;4993458;28;20027;-74
2022/12/13 05:28:27;;;;;;;47.00;18.50;;;-5.50;99.90;;;;;;4994908;28;20108;-73
2022/12/13 05:30:54;;;;;;;52.03;18.20;;;-5.60;99.90;;;;;;4987584;28;20030;-74
2022/12/13 05:33:21;;;;;;;45.45;17.60;;;-5.70;99.90;;;;;;4986697;28;20050;-73
2022/12/13 05:35:47;;;;;;;49.13;18.58;;;-5.80;99.90;;;;;;4981970;28;20485;-73
2022/12/13 05:38:12;;;;;;;42.35;18.17;;;-5.80;99.90;;;;;;4990245;28;20045;-73
2022/12/13 05:40:38;;;;;;;50.45;19.23;;;-5.80;99.90;;;;;;4986994;28;20122;-73
2022/12/13 05:43:04;;;;;;;44.75;17.48;;;-5.90;99.90;;;;;;4981787;28;20038;-73
2022/12/13 05:45:30;;;;;;;47.05;17.08;;;-5.80;99.90;;;;;;4985236;28;20030;-73
2022/12/13 05:47:56;;;;;;;53.33;18.70;;;-5.90;99.90;;;;;;4992700;28;20036;-73
2022/12/13 05:50:21;;;;;;;49.75;18.02;;;-5.80;99.90;;;;;;4984806;28;20031;-73
2022/12/13 05:52:47;;;;;;;48.38;18.88;;;-5.80;99.90;;;;;;4992515;28;20058;-73
2022/12/13 05:55:13;;;;;;;51.03;19.63;;;-5.80;99.90;;;;;;4990955;28;20132;-73
2022/12/13 05:57:38;;;;;;;49.30;18.35;;;-5.80;99.90;;;;;;4997606;28;20085;-73
2022/12/13 06:00:06;;;;;;;47.88;17.60;;;-5.80;99.90;;;;;;4992712;28;20077;-74
2022/12/13 06:02:36;;;;;;;46.80;17.52;;;-5.90;99.90;;;;;;4991895;28;20142;-73
2022/12/13 06:05:02;;;;;;;51.60;18.25;;;-5.90;99.90;;;;;;4992403;28;20034;-74
2022/12/13 06:07:28;;;;;;;47.30;17.38;;;-5.90;99.90;;;;;;4993287;28;20030;-72
2022/12/13 06:09:53;;;;;;;50.40;17.83;;;-5.90;99.90;;;;;;4998158;28;20030;-73
2022/12/13 06:12:19;;;;;;;47.75;17.58;;;-5.90;99.90;;;;;;4986583;28;20026;-73
2022/12/13 06:14:44;;;;;;;44.22;17.95;;;-6.00;99.90;;;;;;4995781;28;20026;-73
2022/12/13 06:17:10;;;;;;;44.53;16.83;;;-6.00;99.90;;;;;;4995625;28;20121;-73
2022/12/13 06:19:36;;;;;;;44.70;17.38;;;-6.00;99.90;;;;;;4994310;28;20034;-73
2022/12/13 06:22:01;;;;;;;50.05;17.58;;;-6.10;99.90;;;;;;4980529;28;20177;-73
2022/12/13 06:24:27;;;;;;;45.50;18.17;;;-6.10;99.90;;;;;;4991603;28;20402;-73
2022/12/13 06:26:52;;;;;;;43.75;18.33;;;-6.10;99.90;;;;;;4983546;28;20030;-73
2022/12/13 06:29:20;;;;;;;47.10;18.17;;;-6.20;99.90;;;;;;4998281;28;20543;-73
2022/12/13 06:31:46;;;;;;;46.33;18.15;;;-6.20;99.90;;;;;;4996675;28;20031;-73
2022/12/13 06:34:12;;;;;;;42.85;16.10;;;-6.20;99.90;;;;;;4998308;28;20080;-72
2022/12/13 06:36:37;;;;;;;48.97;17.35;;;-6.20;99.90;;;;;;4994965;28;20047;-73
2022/12/13 06:39:05;;;;;;;44.28;18.05;;;-6.20;99.90;;;;;;4989802;28;20153;-73
2022/12/13 06:41:31;;;;;;;46.10;17.40;;;-6.20;99.90;;;;;;4993229;28;20132;-74
2022/12/13 06:43:57;;;;;;;49.50;17.17;;;-6.20;99.90;;;;;;4991005;28;20034;-74
2022/12/13 06:46:24;;;;;;;52.03;17.13;;;-6.30;99.90;;;;;;4996553;28;20102;-73
2022/12/13 06:48:50;;;;;;;45.13;15.82;;;-6.30;99.90;;;;;;4991648;28;20030;-74
2022/12/13 06:51:16;;;;;;;46.75;17.10;;;-6.30;99.90;;;;;;4991290;28;20052;-72
2022/12/13 06:53:42;;;;;;;43.00;16.55;;;-6.30;99.90;;;;;;4990560;28;20498;-73
2022/12/13 06:56:13;;;;;;;46.08;16.88;;;-6.40;99.90;;;;;;4994956;28;20035;-73
2022/12/13 06:58:40;;;;;;;53.38;17.58;;;-6.40;99.90;;;;;;4997569;28;20026;-73
2022/12/13 07:01:11;;;;;;;50.20;16.25;;;-6.40;99.90;;;;;;4995036;28;20054;-73
2022/12/13 07:03:40;;;;;;;45.60;16.60;;;-6.40;99.90;;;;;;4998822;28;20030;-73
2022/12/13 07:06:16;;;;;;;46.53;16.92;;;-6.40;99.90;;;;;;5002457;28;20449;-74
2022/12/13 07:08:49;;;;;;;49.03;17.85;;;-6.40;99.90;;;;;;4991099;28;20068;-74
2022/12/13 07:11:18;;;;;;;53.53;18.85;;;-6.40;99.90;;;;;;4986290;28;20030;-74
2022/12/13 07:13:44;;;;;;;46.28;17.40;;;-6.50;99.90;;;;;;4979030;28;20046;-74
2022/12/13 07:16:11;;;;;;;51.83;17.60;;;-6.50;99.90;;;;;;4989258;28;20035;-73
2022/12/13 07:18:36;;;;;;;53.28;18.67;;;-6.50;99.90;;;;;;4984247;28;20034;-73
2022/12/13 07:21:11;;;;;;;51.65;19.75;;;-6.50;99.90;;;;;;4996346;28;20116;-74
2022/12/13 07:23:38;;;;;;;55.92;18.73;;;-6.50;99.90;;;;;;4996719;28;20387;-74
2022/12/13 07:26:05;;;;;;;55.55;20.08;;;-6.40;99.90;;;;;;4983861;28;20081;-73
2022/12/13 07:28:35;;;;;;;55.40;19.13;;;-6.40;99.90;;;;;;4989696;28;20035;-73
2022/12/13 07:31:02;;;;;;;58.97;20.55;;;-6.40;99.90;;;;;;4992423;28;20501;-73
2022/12/13 07:33:31;;;;;;;55.08;20.27;;;-6.40;99.90;;;;;;4986352;28;20034;-73
2022/12/13 07:36:10;;;;;;;60.40;22.25;;;-6.40;99.90;;;;;;4991566;28;20540;-73
2022/12/13 07:38:36;;;;;;;53.85;20.73;;;-6.30;99.90;;;;;;4999108;28;20117;-73
2022/12/13 07:41:03;;;;;;;58.00;21.02;;;-6.20;99.90;;;;;;4987900;28;20034;-74
2022/12/13 07:43:28;;;;;;;62.90;22.30;;;-6.10;99.90;;;;;;4981099;28;20026;-74
2022/12/13 07:45:58;;;;;;;63.80;23.17;;;-6.00;99.90;;;;;;4995805;28;20022;-74
2022/12/13 07:48:24;;;;;;;65.30;22.90;;;-6.00;99.90;;;;;;4996196;28;20019;-73
2022/12/13 07:50:49;;;;;;;63.25;23.55;;;-5.90;99.90;;;;;;5000373;28;20026;-74
2022/12/13 07:53:15;;;;;;;66.95;22.85;;;-5.80;99.90;;;;;;4990728;28;20088;-74
2022/12/13 07:55:40;;;;;;;67.68;24.45;;;-5.70;99.90;;;;;;4993557;28;20061;-73
2022/12/13 07:58:08;;;;;;;77.43;27.40;;;-5.50;99.90;;;;;;5002381;28;20434;-73
2022/12/13 08:00:34;;;;;;;72.82;25.98;;;-5.40;99.90;;;;;;4991358;28;20474;-74
2022/12/13 08:03:00;;;;;;;73.90;26.10;;;-5.30;99.90;;;;;;5000302;28;20486;-73
2022/12/13 08:05:27;;;;;;;73.45;26.27;;;-5.30;99.90;;;;;;5001684;28;20101;-74
2022/12/13 08:07:52;;;;;;;61.97;25.15;;;-5.20;99.90;;;;;;4990718;28;20062;-73
2022/12/13 08:10:18;;;;;;;74.10;26.23;;;-5.10;99.90;;;;;;4995667;28;20062;-73
2022/12/13 08:12:44;;;;;;;70.07;25.45;;;-5.10;99.90;;;;;;4991000;28;20152;-73
2022/12/13 08:15:10;;;;;;;72.55;27.00;;;-5.00;99.90;;;;;;4996594;28;20053;-73
2022/12/13 08:17:35;;;;;;;77.85;28.52;;;-5.00;99.90;;;;;;4991261;28;20074;-74
2022/12/13 08:20:01;;;;;;;95.03;30.50;;;-4.90;99.90;;;;;;4997538;28;20035;-74
2022/12/13 08:22:27;;;;;;;74.97;27.95;;;-4.80;99.90;;;;;;4990959;28;20042;-73
2022/12/13 08:24:52;;;;;;;79.00;28.83;;;-4.70;99.90;;;;;;5005538;28;20025;-74
2022/12/13 08:27:18;;;;;;;78.60;26.88;;;-4.60;99.90;;;;;;4991066;28;20430;-74
2022/12/13 08:29:43;;;;;;;76.32;28.55;;;-4.50;99.90;;;;;;4992237;28;20041;-74
2022/12/13 08:32:11;;;;;;;79.95;28.85;;;-4.40;99.90;;;;;;4995817;28;20035;-73
2022/12/13 08:34:37;;;;;;;70.47;27.42;;;-4.40;99.90;;;;;;4981466;28;20091;-74
2022/12/13 08:37:04;;;;;;;82.88;28.05;;;-4.30;99.90;;;;;;4986947;28;20038;-74
2022/12/13 08:39:34;;;;;;;79.85;29.45;;;-4.20;99.90;;;;;;4993856;28;20088;-74
2022/12/13 08:42:13;;;;;;;86.85;28.98;;;-4.10;99.90;;;;;;4990256;28;20026;-73
2022/12/13 08:44:45;;;;;;;79.00;28.35;;;-4.00;99.90;;;;;;4983983;28;20026;-73
2022/12/13 08:47:11;;;;;;;106.53;31.00;;;-3.90;99.90;;;;;;4996823;28;20028;-74
2022/12/13 08:49:37;;;;;;;78.25;30.42;;;-3.90;99.90;;;;;;4993434;28;20116;-73
2022/12/13 08:52:03;;;;;;;83.53;30.23;;;-3.80;99.90;;;;;;4990390;28;20438;-74
2022/12/13 08:54:32;;;;;;;115.70;32.15;;;-3.70;99.90;;;;;;4994406;28;20026;-74
2022/12/13 08:56:57;;;;;;;85.45;28.88;;;-3.70;99.90;;;;;;4993145;28;20041;-73
2022/12/13 08:59:24;;;;;;;90.53;31.83;;;-3.70;99.90;;;;;;5004723;28;20022;-74
2022/12/13 09:01:49;;;;;;;74.85;29.23;;;-3.60;99.90;;;;;;4991745;28;20068;-73
2022/12/13 09:04:15;;;;;;;86.05;30.27;;;-3.50;99.90;;;;;;4991747;28;20034;-74
2022/12/13 09:06:42;;;;;;;80.68;29.15;;;-3.50;99.90;;;;;;4988439;28;20034;-74
2022/12/13 09:09:08;;;;;;;77.38;30.10;;;-3.50;99.90;;;;;;4993902;28;20022;-74
2022/12/13 09:11:33;;;;;;;80.20;28.27;;;-3.50;99.90;;;;;;4995418;28;20022;-74
2022/12/13 09:13:59;;;;;;;77.38;30.10;;;-3.50;99.90;;;;;;4990876;28;20490;-74
2022/12/13 09:16:24;;;;;;;74.45;30.85;;;-3.40;99.90;;;;;;4991164;28;20033;-74
2022/12/13 09:18:51;;;;;;;71.70;27.45;;;-3.40;99.90;;;;;;4992982;28;20117;-75
2022/12/13 09:21:17;;;;;;;80.53;29.27;;;-3.40;99.90;;;;;;4989924;28;20049;-74
2022/12/13 09:23:43;;;;;;;73.95;27.67;;;-3.30;99.90;;;;;;4992877;28;20038;-74
2022/12/13 09:26:14;;;;;;;71.65;29.30;;;-3.40;99.90;;;;;;4995837;28;20112;-73
2022/12/13 09:28:41;;;;;;;68.13;27.27;;;-3.40;99.90;;;;;;4992608;28;20087;-73
2022/12/13 09:31:12;;;;;;;72.15;28.13;;;-3.30;99.90;;;;;;4986868;28;20515;-73
2022/12/13 09:33:38;;;;;;;74.53;26.95;;;-3.30;99.90;;;;;;4980259;28;20037;-73
2022/12/13 09:36:05;;;;;;;72.05;29.75;;;-3.30;99.90;;;;;;4986125;28;20465;-72
2022/12/13 09:38:35;;;;;;;71.50;29.33;;;-3.20;99.90;;;;;;4984667;28;20034;-73
2022/12/13 09:41:12;;;;;;;82.68;35.92;;;-3.20;99.90;;;;;;4987544;28;20041;-73
2022/12/13 09:43:38;;;;;;;76.00;29.73;;;-3.10;99.90;;;;;;4994948;28;20156;-73
2022/12/13 09:46:10;;;;;;;77.32;27.40;;;-3.10;99.90;;;;;;5002324;28;20129;-75
2022/12/13 09:48:36;;;;;;;69.00;27.47;;;-3.10;99.90;;;;;;4990008;28;20026;-73
2022/12/13 09:51:02;;;;;;;63.85;29.05;;;-3.00;99.90;;;;;;4991301;28;20030;-73
2022/12/13 09:53:28;;;;;;;70.22;28.60;;;-3.00;99.90;;;;;;4995989;28;20030;-73
2022/12/13 09:55:54;;;;;;;63.40;25.60;;;-3.00;99.90;;;;;;4996683;28;20042;-73
2022/12/13 09:58:21;;;;;;;67.53;28.63;;;-3.10;99.90;;;;;;4981832;28;20033;-73
2022/12/13 10:00:50;;;;;;;67.53;27.40;;;-3.10;99.90;;;;;;4985613;28;20022;-73
2022/12/13 10:03:18;;;;;;;72.15;28.48;;;-3.10;99.90;;;;;;4976322;28;20035;-74
2022/12/13 10:05:54;;;;;;;78.22;27.95;;;-3.00;99.90;;;;;;4996340;28;20018;-74
2022/12/13 10:08:23;;;;;;;88.10;30.33;;;-3.00;99.90;;;;;;4992980;28;20030;-74
2022/12/13 10:10:52;;;;;;;88.13;29.67;;;-3.00;99.90;;;;;;4992448;28;20018;-72
2022/12/13 10:13:38;;;;;;;106.43;32.20;;;-2.90;99.90;;;;;;4989425;28;20041;-72
2022/12/13 10:16:16;;;;;;;83.95;30.70;;;-2.90;99.90;;;;;;4985002;28;20080;-72
2022/12/13 10:18:43;;;;;;;53.28;21.38;;;-2.90;99.90;;;;;;4987609;28;20092;-72
2022/12/13 10:21:28;;;;;;;72.32;28.10;;;-2.90;99.90;;;;;;4992732;28;20050;-72
2022/12/13 10:23:55;;;;;;;70.53;26.67;;;-2.80;99.90;;;;;;4988009;28;20022;-72
2022/12/13 10:26:21;;;;;;;91.57;28.65;;;-2.80;99.90;;;;;;4989795;28;20023;-72
2022/12/13 10:28:46;;;;;;;77.22;30.02;;;-2.70;99.90;;;;;;4987394;28;20061;-72
2022/12/13 10:31:18;;;;;;;71.07;28.55;;;-2.70;99.90;;;;;;4983955;28;20117;-73
2022/12/13 10:33:53;;;;;;;74.05;28.80;;;-2.60;99.90;;;;;;4991877;28;20037;-73
2022/12/13 10:36:34;;;;;;;91.80;31.83;;;-2.60;99.90;;;;;;4998035;28;20042;-73
2022/12/13 10:38:59;;;;;;;85.07;31.15;;;-2.50;99.90;;;;;;4989653;28;20030;-73
2022/12/13 10:41:36;;;;;;;134.80;35.15;;;-2.50;99.90;;;;;;4989937;28;20022;-73
2022/12/13 10:44:16;;;;;;;83.10;30.70;;;-2.50;99.90;;;;;;4988338;28;20026;-73
2022/12/13 10:47:15;;;;;;;68.20;26.55;;;-2.40;99.90;;;;;;4993542;28;20030;-73
2022/12/13 10:49:57;;;;;;;74.32;27.75;;;-2.30;99.90;;;;;;4990007;28;20089;-73
2022/12/13 10:52:32;;;;;;;71.68;27.95;;;-2.30;99.90;;;;;;4984951;28;20061;-73
2022/12/13 10:55:01;;;;;;;76.85;28.25;;;-2.20;99.90;;;;;;4990932;28;20049;-74
2022/12/13 10:57:27;;;;;;;64.95;26.98;;;-2.20;99.90;;;;;;4993919;28;20042;-73
2022/12/13 10:59:53;;;;;;;63.72;26.90;;;-2.10;99.90;;;;;;4993288;28;20069;-73
2022/12/13 11:02:34;;;;;;;61.13;24.50;;;-2.10;99.90;;;;;;5001444;28;20041;-74
2022/12/13 11:05:24;;;;;;;61.05;26.73;;;-2.00;99.90;;;;;;4989134;28;20049;-73
2022/12/13 11:07:51;;;;;;;61.58;26.83;;;-1.90;99.90;;;;;;4985750;28;20058;-73
2022/12/13 11:10:24;;;;;;;65.18;28.08;;;-1.90;99.90;;;;;;4995872;28;20026;-73
2022/12/13 11:12:50;;;;;;;65.07;25.33;;;-1.90;99.90;;;;;;5002573;28;20050;-73
2022/12/13 11:15:22;;;;;;;59.25;24.77;;;-1.90;99.90;;;;;;4985331;28;20030;-72
2022/12/13 11:17:54;;;;;;;64.30;26.75;;;-1.80;99.90;;;;;;4985119;28;20041;-73
2022/12/13 11:20:27;;;;;;;65.88;25.42;;;-1.70;99.90;;;;;;4994966;28;20041;-73
2022/12/13 11:23:14;;;;;;;56.35;24.20;;;-1.50;99.90;;;;;;5001942;28;20034;-73
2022/12/13 11:25:42;;;;;;;57.92;26.73;;;-1.50;99.90;;;;;;4991702;28;20478;-73
2022/12/13 11:28:40;;;;;;;68.82;26.13;;;-1.40;99.90;;;;;;4991788;28;20034;-73
2022/12/13 11:31:28;;;;;;;59.50;25.70;;;-1.30;99.90;;;;;;4991845;28;20037;-73
2022/12/13 11:34:10;;;;;;;479.60;64.72;;;-1.20;99.90;;;;;;5000941;28;20401;-73
2022/12/13 11:36:43;;;;;;;63.55;29.00;;;-1.20;99.90;;;;;;4994037;28;20574;-73
2022/12/13 11:39:35;;;;;;;129.65;38.72;;;-1.10;99.90;;;;;;4991139;28;20117;-73
2022/12/13 11:42:28;;;;;;;172.27;39.00;;;-1.10;99.90;;;;;;4987878;28;20042;-73
2022/12/13 11:45:05;;;;;;;;;;;-1.10;99.90;;;;;;4987012;28;20026;-73
2022/12/13 11:47:47;;;;;;;68.75;26.08;;;-1.10;99.90;;;;;;4999398;28;19910;-73
2022/12/13 11:50:28;;;;;;;68.32;26.67;;;-1.10;99.90;;;;;;4995470;28;20026;-73
2022/12/13 11:53:32;;;;;;;57.80;24.25;;;-1.10;99.90;;;;;;4996349;28;20081;-73
2022/12/13 11:56:07;;;;;;;53.72;23.77;;;-1.00;99.90;;;;;;4988672;28;20022;-73
2022/12/13 11:58:50;;;;;;;55.72;25.10;;;-1.00;99.90;;;;;;4988126;28;20039;-73
2022/12/13 12:01:34;;;;;;;57.10;23.17;;;-1.00;99.90;;;;;;4980853;28;20030;-73
2022/12/13 12:04:15;;;;;;;56.55;25.08;;;-1.00;99.90;;;;;;4990128;28;20045;-74
2022/12/13 12:06:53;;;;;;;54.15;24.77;;;-1.00;99.90;;;;;;4983136;28;20390;-73
2022/12/13 12:09:21;;;;;;;54.17;24.15;;;-1.00;99.90;;;;;;4989077;28;20505;-73
2022/12/13 12:12:26;;;;;;;52.00;24.40;;;-1.10;99.90;;;;;;4990974;28;20062;-73
2022/12/13 12:15:06;;;;;;;58.83;24.85;;;-1.10;99.90;;;;;;4989275;28;20023;-73
2022/12/13 12:17:32;;;;;;;46.58;20.83;;;-1.10;99.90;;;;;;4980874;28;20108;-73
2022/12/13 12:19:58;;;;;;;56.78;24.48;;;-1.20;99.90;;;;;;4988537;28;20034;-74
2022/12/13 12:22:47;;;;;;;56.55;24.90;;;-1.20;99.90;;;;;;4991451;28;20049;-73
2022/12/13 12:25:32;;;;;;;50.80;20.90;;;-1.20;99.90;;;;;;4993697;28;20045;-73
2022/12/13 12:28:17;;;;;;;57.30;23.70;;;-1.10;99.90;;;;;;4986481;28;20120;-72
2022/12/13 12:31:10;;;;;;;47.83;21.95;;;-1.20;99.90;;;;;;4989993;28;20038;-73
2022/12/13 12:33:38;;;;;;;55.97;23.98;;;-1.10;99.90;;;;;;4989176;28;20479;-73
2022/12/13 12:36:43;;;;;;;57.88;24.45;;;-1.10;99.90;;;;;;4993256;28;20629;-73
2022/12/13 12:39:20;;;;;;;51.25;23.83;;;-1.00;99.90;;;;;;4992833;28;20147;-73
2022/12/13 12:42:30;;;;;;;55.35;23.48;;;-1.00;99.90;;;;;;4994199;28;20090;-72
2022/12/13 12:45:28;;;;;;;57.80;23.95;;;-0.90;99.90;;;;;;4986428;28;20069;-74
2022/12/13 12:48:35;;;;;;;49.20;22.67;;;-0.80;99.90;;;;;;4993591;28;20093;-72
2022/12/13 12:51:06;;;;;;;60.20;25.23;;;-0.70;99.90;;;;;;4986564;28;20041;-72